Time;durP1;ratioP1;P1;durP2;ratioP2;P2;SDS_P1;SDS_P2;PMS_P1;PMS_P2;Temp;Humidity;BMP_temperature;BMP_pressure;BME280_temperature;BME280_humidity;BME280_pressure;Samples;Min_cycle;Max_cycle;Signal;HPM_P1;HPM_P2
2022/07/17 00:01:55;;;;;;;4.40;1.75;;;;;;;;;;4879632;29;20592;-65
2022/07/17 00:04:20;;;;;;;6.32;1.80;;;;;;;;;;4878104;29;20390;-65
2022/07/17 00:06:46;;;;;;;5.45;1.63;;;;;;;;;;4875696;29;20497;-66
2022/07/17 00:09:11;;;;;;;3.60;1.52;;;;;;;;;;4877916;29;20097;-65
2022/07/17 00:11:37;;;;;;;5.72;2.20;;;;;;;;;;4884787;29;20032;-65
2022/07/17 00:14:02;;;;;;;3.17;1.52;;;;;;;;;;4882180;29;20044;-65
2022/07/17 00:16:27;;;;;;;5.85;1.60;;;;;;;;;;4875533;29;20061;-68
2022/07/17 00:18:53;;;;;;;5.28;1.70;;;;;;;;;;4875250;29;20105;-65
2022/07/17 00:21:18;;;;;;;3.67;1.52;;;;;;;;;;4884527;29;20033;-65
2022/07/17 00:23:44;;;;;;;3.83;1.80;;;;;;;;;;4891455;29;20510;-65
2022/07/17 00:26:09;;;;;;;4.07;1.58;;;;;;;;;;4884635;29;20492;-65
2022/07/17 00:28:35;;;;;;;8.82;2.13;;;;;;;;;;4889058;29;20037;-65
2022/07/17 00:31:00;;;;;;;4.22;1.50;;;;;;;;;;4882151;29;20036;-65
2022/07/17 00:33:26;;;;;;;5.25;1.63;;;;;;;;;;4894865;29;20058;-68
2022/07/17 00:35:51;;;;;;;8.70;1.70;;;;;;;;;;4885619;29;20436;-68
2022/07/17 00:38:16;;;;;;;5.13;1.70;;;;;;;;;;4877725;29;20372;-65
2022/07/17 00:40:42;;;;;;;8.98;1.98;;;;;;;;;;4882389;29;20043;-66
2022/07/17 00:43:07;;;;;;;4.28;1.63;;;;;;;;;;4886051;29;20029;-66
2022/07/17 00:45:33;;;;;;;6.18;1.77;;;;;;;;;;4879143;29;20088;-68
2022/07/17 00:48:01;;;;;;;5.18;1.67;;;;;;;;;;4875482;29;20104;-65
2022/07/17 00:50:30;;;;;;;10.23;1.70;;;;;;;;;;4879219;29;20056;-70
2022/07/17 00:52:56;;;;;;;5.65;1.73;;;;;;;;;;4877656;29;20081;-65
2022/07/17 00:55:22;;;;;;;5.40;1.75;;;;;;;;;;4875751;29;20072;-65
2022/07/17 00:57:49;;;;;;;4.10;1.60;;;;;;;;;;4876984;29;20032;-65
2022/07/17 01:00:18;;;;;;;5.68;2.00;;;;;;;;;;4878517;29;20496;-65
2022/07/17 01:02:48;;;;;;;5.68;1.80;;;;;;;;;;4880391;29;20092;-66
2022/07/17 01:05:15;;;;;;;6.45;1.85;;;;;;;;;;4880024;29;20903;-66
2022/07/17 01:07:41;;;;;;;6.13;1.77;;;;;;;;;;4878772;29;20055;-65
2022/07/17 01:10:07;;;;;;;6.15;1.80;;;;;;;;;;4879722;29;20111;-65
2022/07/17 01:12:33;;;;;;;6.18;1.92;;;;;;;;;;4882500;29;20145;-67
2022/07/17 01:14:59;;;;;;;4.88;1.83;;;;;;;;;;4879528;29;20055;-68
2022/07/17 01:17:25;;;;;;;6.88;1.88;;;;;;;;;;4862798;29;20041;-64
2022/07/17 01:19:51;;;;;;;6.80;2.03;;;;;;;;;;4876526;29;20372;-66
2022/07/17 01:22:16;;;;;;;9.30;2.28;;;;;;;;;;4878593;29;20045;-65
2022/07/17 01:24:41;;;;;;;4.45;1.80;;;;;;;;;;4880438;29;20037;-65
2022/07/17 01:27:07;;;;;;;5.80;1.60;;;;;;;;;;4879580;29;20025;-65
2022/07/17 01:29:36;;;;;;;6.10;1.63;;;;;;;;;;4878588;29;20070;-67
2022/07/17 01:32:01;;;;;;;5.63;2.00;;;;;;;;;;4875488;29;20049;-65
2022/07/17 01:34:27;;;;;;;8.52;1.77;;;;;;;;;;4878874;29;20427;-66
2022/07/17 01:36:52;;;;;;;4.90;1.70;;;;;;;;;;4892576;29;20039;-66
2022/07/17 01:39:17;;;;;;;6.13;2.00;;;;;;;;;;4876960;29;20037;-65
2022/07/17 01:42:03;;;;;;;6.68;1.70;;;;;;;;;;4894086;29;20577;-65
2022/07/17 01:44:28;;;;;;;7.00;2.10;;;;;;;;;;4898785;29;20161;-65
2022/07/17 01:46:53;;;;;;;5.53;1.75;;;;;;;;;;4897909;29;20052;-65
2022/07/17 01:49:19;;;;;;;5.40;2.03;;;;;;;;;;4887645;29;20045;-65
2022/07/17 01:51:44;;;;;;;6.85;1.80;;;;;;;;;;4876476;29;20386;-65
2022/07/17 01:54:09;;;;;;;6.57;1.70;;;;;;;;;;4879985;29;20052;-65
2022/07/17 01:56:35;;;;;;;5.22;2.00;;;;;;;;;;4880422;29;20386;-66
2022/07/17 01:59:00;;;;;;;6.95;2.03;;;;;;;;;;4887445;29;20096;-65
2022/07/17 02:01:26;;;;;;;6.97;1.80;;;;;;;;;;4888800;29;20485;-65
2022/07/17 02:03:51;;;;;;;3.30;1.73;;;;;;;;;;4879809;29;20036;-66
2022/07/17 02:06:16;;;;;;;5.63;2.20;;;;;;;;;;4879122;29;20097;-65
2022/07/17 02:08:42;;;;;;;8.52;2.13;;;;;;;;;;4861853;29;20346;-69
2022/07/17 02:11:07;;;;;;;7.55;2.00;;;;;;;;;;4877614;29;20044;-65
2022/07/17 02:13:33;;;;;;;6.28;1.98;;;;;;;;;;4879207;29;20048;-68
2022/07/17 02:15:58;;;;;;;7.70;1.90;;;;;;;;;;4878518;29;20043;-67
2022/07/17 02:18:23;;;;;;;8.80;2.05;;;;;;;;;;4880262;29;20037;-66
2022/07/17 02:20:49;;;;;;;5.15;1.90;;;;;;;;;;4883344;29;20033;-65
2022/07/17 02:23:15;;;;;;;7.07;1.92;;;;;;;;;;4888075;29;20041;-65
2022/07/17 02:25:40;;;;;;;5.22;1.90;;;;;;;;;;4880584;29;20128;-66
2022/07/17 02:28:06;;;;;;;5.63;1.90;;;;;;;;;;4878621;29;20033;-65
2022/07/17 02:30:31;;;;;;;5.00;1.98;;;;;;;;;;4867521;29;20397;-65
2022/07/17 02:32:56;;;;;;;5.40;2.00;;;;;;;;;;4898028;29;20347;-65
2022/07/17 02:35:22;;;;;;;5.43;1.90;;;;;;;;;;4874178;29;20036;-64
2022/07/17 02:37:47;;;;;;;7.10;1.80;;;;;;;;;;4884401;29;20126;-65
2022/07/17 02:40:13;;;;;;;6.50;2.05;;;;;;;;;;4878911;29;20041;-65
2022/07/17 02:42:38;;;;;;;5.20;1.70;;;;;;;;;;4877618;29;20085;-65
2022/07/17 02:45:06;;;;;;;4.45;1.80;;;;;;;;;;4878720;29;20037;-67
2022/07/17 02:47:33;;;;;;;5.63;2.17;;;;;;;;;;4870546;29;20033;-65
2022/07/17 02:50:01;;;;;;;6.50;2.08;;;;;;;;;;4875892;29;20045;-66
2022/07/17 02:52:27;;;;;;;5.40;1.90;;;;;;;;;;4876917;29;20105;-65
2022/07/17 02:54:52;;;;;;;4.32;1.80;;;;;;;;;;4876305;29;20501;-64
2022/07/17 02:57:18;;;;;;;4.60;2.00;;;;;;;;;;4879075;29;20029;-66
2022/07/17 02:59:43;;;;;;;5.70;2.10;;;;;;;;;;4876528;29;20033;-66
2022/07/17 03:02:09;;;;;;;7.38;2.10;;;;;;;;;;4877919;29;20456;-65
2022/07/17 03:04:34;;;;;;;4.95;2.03;;;;;;;;;;4881982;29;20025;-69
2022/07/17 03:07:00;;;;;;;6.32;2.28;;;;;;;;;;4876930;29;20479;-65
2022/07/17 03:09:25;;;;;;;5.40;2.10;;;;;;;;;;4869313;29;20367;-65
2022/07/17 03:11:51;;;;;;;4.93;1.90;;;;;;;;;;4897186;29;20036;-65
2022/07/17 03:14:17;;;;;;;7.85;2.22;;;;;;;;;;4884481;29;20036;-65
2022/07/17 03:16:42;;;;;;;9.60;2.05;;;;;;;;;;4893637;29;20265;-64
2022/07/17 03:19:08;;;;;;;4.25;1.92;;;;;;;;;;4896085;29;20032;-65
2022/07/17 03:21:33;;;;;;;5.43;1.88;;;;;;;;;;4897218;29;20032;-66
2022/07/17 03:23:59;;;;;;;6.47;2.05;;;;;;;;;;4888972;29;20541;-66
2022/07/17 03:26:24;;;;;;;8.30;2.40;;;;;;;;;;4878269;29;20037;-66
2022/07/17 03:28:50;;;;;;;6.82;2.17;;;;;;;;;;4875451;29;20497;-65
2022/07/17 03:31:15;;;;;;;4.03;1.95;;;;;;;;;;4877822;29;20125;-65
2022/07/17 03:33:40;;;;;;;4.20;1.75;;;;;;;;;;4875302;29;20473;-67
2022/07/17 03:36:06;;;;;;;6.70;1.90;;;;;;;;;;4888652;29;20072;-65
2022/07/17 03:38:32;;;;;;;4.78;1.98;;;;;;;;;;4882421;29;20028;-65
2022/07/17 03:40:57;;;;;;;4.95;2.20;;;;;;;;;;4877959;29;20482;-65
2022/07/17 03:43:23;;;;;;;4.38;2.10;;;;;;;;;;4874737;29;20211;-67
2022/07/17 03:45:48;;;;;;;5.05;1.90;;;;;;;;;;4877180;29;20024;-66
2022/07/17 03:48:14;;;;;;;7.50;2.30;;;;;;;;;;4886680;29;20032;-65
2022/07/17 03:50:39;;;;;;;7.90;2.40;;;;;;;;;;4896648;29;20069;-67
2022/07/17 03:53:05;;;;;;;4.38;2.00;;;;;;;;;;4884030;29;20044;-65
2022/07/17 03:55:30;;;;;;;5.82;2.20;;;;;;;;;;4878811;29;20398;-64
2022/07/17 03:57:55;;;;;;;8.98;2.25;;;;;;;;;;4874680;29;20121;-66
2022/07/17 04:00:21;;;;;;;8.27;2.38;;;;;;;;;;4872350;29;20390;-65
2022/07/17 04:02:46;;;;;;;7.05;2.20;;;;;;;;;;4884807;29;20365;-67
2022/07/17 04:05:12;;;;;;;7.05;2.45;;;;;;;;;;4889346;29;20053;-65
2022/07/17 04:07:38;;;;;;;6.82;2.17;;;;;;;;;;4876446;29;20032;-65
2022/07/17 04:10:05;;;;;;;7.60;2.53;;;;;;;;;;4877794;29;20121;-64
2022/07/17 04:12:30;;;;;;;6.93;2.40;;;;;;;;;;4875579;29;20044;-66
2022/07/17 04:14:56;;;;;;;7.45;2.40;;;;;;;;;;4876698;29;20033;-65
2022/07/17 04:17:22;;;;;;;8.88;2.30;;;;;;;;;;4879109;29;20041;-65
2022/07/17 04:19:48;;;;;;;7.40;2.20;;;;;;;;;;4877456;29;20124;-66
2022/07/17 04:22:14;;;;;;;5.22;2.20;;;;;;;;;;4873912;29;20124;-65
2022/07/17 04:24:39;;;;;;;3.47;2.10;;;;;;;;;;4878126;29;20081;-69
2022/07/17 04:27:05;;;;;;;7.47;2.70;;;;;;;;;;4884556;29;20037;-65
2022/07/17 04:29:31;;;;;;;4.80;2.28;;;;;;;;;;4881360;29;20068;-66
2022/07/17 04:31:56;;;;;;;6.93;2.42;;;;;;;;;;4877932;29;20449;-65
2022/07/17 04:34:21;;;;;;;7.40;2.28;;;;;;;;;;4896640;29;20493;-64
2022/07/17 04:36:47;;;;;;;5.40;2.30;;;;;;;;;;4881766;29;20033;-64
2022/07/17 04:39:12;;;;;;;6.05;2.40;;;;;;;;;;4883483;29;20387;-65
2022/07/17 04:41:37;;;;;;;6.00;2.40;;;;;;;;;;4864958;29;20043;-65
2022/07/17 04:44:03;;;;;;;6.72;2.50;;;;;;;;;;4895800;29;20608;-65
2022/07/17 04:46:29;;;;;;;10.85;2.47;;;;;;;;;;4883139;29;20474;-66
2022/07/17 04:48:54;;;;;;;8.82;2.75;;;;;;;;;;4874603;29;20141;-65
2022/07/17 04:51:19;;;;;;;6.28;2.55;;;;;;;;;;4876088;29;20040;-64
2022/07/17 04:53:45;;;;;;;8.38;2.70;;;;;;;;;;4878869;29;20482;-67
2022/07/17 04:56:10;;;;;;;6.35;2.40;;;;;;;;;;4876300;29;20423;-64
2022/07/17 04:58:35;;;;;;;6.35;2.35;;;;;;;;;;4875961;29;20502;-65
2022/07/17 05:01:01;;;;;;;6.43;2.50;;;;;;;;;;4883431;29;20633;-66
2022/07/17 05:03:26;;;;;;;6.13;2.60;;;;;;;;;;4876441;29;20037;-68
2022/07/17 05:05:52;;;;;;;5.53;2.40;;;;;;;;;;4881181;29;20482;-65
2022/07/17 05:08:18;;;;;;;4.93;2.25;;;;;;;;;;4896046;29;20478;-65
2022/07/17 05:10:44;;;;;;;7.07;2.40;;;;;;;;;;4893319;29;20044;-67
2022/07/17 05:13:10;;;;;;;7.18;2.55;;;;;;;;;;4881553;29;20044;-65
2022/07/17 05:15:35;;;;;;;6.35;2.30;;;;;;;;;;4879495;29;20028;-65
2022/07/17 05:18:00;;;;;;;10.32;2.40;;;;;;;;;;4875219;29;20063;-65
2022/07/17 05:20:26;;;;;;;7.65;2.70;;;;;;;;;;4876829;29;20032;-67
2022/07/17 05:22:51;;;;;;;7.47;3.10;;;;;;;;;;4876416;29;20033;-66
2022/07/17 05:25:17;;;;;;;6.65;2.47;;;;;;;;;;4860756;29;20033;-65
2022/07/17 05:27:43;;;;;;;10.30;2.92;;;;;;;;;;4891078;29;20402;-67
2022/07/17 05:30:08;;;;;;;6.22;2.58;;;;;;;;;;4875387;29;20486;-65
2022/07/17 05:32:34;;;;;;;11.90;2.88;;;;;;;;;;4892442;29;20078;-65
2022/07/17 05:34:59;;;;;;;6.32;2.90;;;;;;;;;;4883835;29;20028;-65
2022/07/17 05:37:25;;;;;;;7.60;3.15;;;;;;;;;;4890722;29;20039;-65
2022/07/17 05:39:50;;;;;;;7.05;3.10;;;;;;;;;;4894392;29;20427;-66
2022/07/17 05:42:16;;;;;;;9.90;4.30;;;;;;;;;;4894103;29;20044;-65
2022/07/17 05:44:41;;;;;;;10.35;5.22;;;;;;;;;;4894597;29;20040;-64
2022/07/17 05:47:06;;;;;;;9.98;5.15;;;;;;;;;;4891502;29;20108;-65
2022/07/17 05:49:32;;;;;;;9.50;6.07;;;;;;;;;;4879867;29;20538;-65
2022/07/17 05:51:57;;;;;;;8.52;5.90;;;;;;;;;;4889702;29;20064;-66
2022/07/17 05:54:23;;;;;;;10.65;4.80;;;;;;;;;;4880322;29;20139;-66
2022/07/17 05:56:48;;;;;;;9.10;4.00;;;;;;;;;;4899017;29;20463;-69
2022/07/17 05:59:14;;;;;;;6.78;3.13;;;;;;;;;;4896960;29;20381;-66
2022/07/17 06:01:39;;;;;;;7.63;3.08;;;;;;;;;;4882331;29;20040;-65
2022/07/17 06:04:04;;;;;;;7.97;3.40;;;;;;;;;;4881565;29;20064;-65
2022/07/17 06:06:30;;;;;;;11.07;3.10;;;;;;;;;;4884677;29;20115;-68
2022/07/17 06:08:55;;;;;;;7.35;3.00;;;;;;;;;;4873355;29;20092;-69
2022/07/17 06:11:21;;;;;;;6.07;2.70;;;;;;;;;;4880190;29;20115;-68
2022/07/17 06:13:47;;;;;;;8.38;2.80;;;;;;;;;;4899059;29;20070;-69
2022/07/17 06:16:13;;;;;;;6.53;2.78;;;;;;;;;;4877100;29;20107;-68
2022/07/17 06:18:38;;;;;;;7.65;2.67;;;;;;;;;;4873987;29;20177;-68
2022/07/17 06:21:04;;;;;;;7.32;2.55;;;;;;;;;;4890039;29;20482;-67
2022/07/17 06:23:30;;;;;;;8.60;3.05;;;;;;;;;;4883622;29;20036;-68
2022/07/17 06:25:56;;;;;;;7.78;2.80;;;;;;;;;;4890480;29;20550;-69
2022/07/17 06:28:21;;;;;;;5.93;2.50;;;;;;;;;;4877390;29;20123;-67
2022/07/17 06:30:47;;;;;;;7.43;2.67;;;;;;;;;;4873364;29;20060;-70
2022/07/17 06:33:12;;;;;;;6.07;2.53;;;;;;;;;;4875193;29;20044;-69
2022/07/17 06:35:38;;;;;;;7.28;2.58;;;;;;;;;;4879897;29;20063;-68
2022/07/17 06:38:04;;;;;;;6.53;2.50;;;;;;;;;;4876284;29;20185;-70
2022/07/17 06:40:30;;;;;;;4.55;2.25;;;;;;;;;;4885439;29;20446;-69
2022/07/17 06:42:55;;;;;;;5.53;2.20;;;;;;;;;;4880875;29;20115;-68
2022/07/17 06:45:21;;;;;;;6.47;2.17;;;;;;;;;;4879628;29;20029;-68
2022/07/17 06:47:46;;;;;;;7.75;2.40;;;;;;;;;;4898768;29;20359;-67
2022/07/17 06:50:12;;;;;;;10.00;2.38;;;;;;;;;;4896598;29;20036;-69
2022/07/17 06:52:37;;;;;;;5.75;2.20;;;;;;;;;;4877718;29;20083;-69
2022/07/17 06:55:03;;;;;;;8.35;2.72;;;;;;;;;;4877102;29;20041;-68
2022/07/17 06:57:29;;;;;;;6.22;2.33;;;;;;;;;;4876449;29;20120;-67
2022/07/17 06:59:54;;;;;;;7.35;2.50;;;;;;;;;;4882562;29;20486;-68
2022/07/17 07:02:19;;;;;;;5.68;2.17;;;;;;;;;;4877958;29;20040;-68
2022/07/17 07:04:45;;;;;;;7.88;2.50;;;;;;;;;;4864688;29;20134;-67
2022/07/17 07:07:11;;;;;;;7.10;2.60;;;;;;;;;;4878463;29;20024;-67
2022/07/17 07:09:36;;;;;;;6.93;2.35;;;;;;;;;;4886957;29;20044;-68
2022/07/17 07:12:02;;;;;;;5.53;2.45;;;;;;;;;;4881055;29;20089;-68
2022/07/17 07:14:28;;;;;;;6.10;2.63;;;;;;;;;;4885870;29;20044;-67
2022/07/17 07:16:53;;;;;;;8.68;2.92;;;;;;;;;;4858341;29;20041;-68
2022/07/17 07:19:19;;;;;;;6.53;2.78;;;;;;;;;;4861889;29;20033;-67
2022/07/17 07:21:44;;;;;;;8.43;2.95;;;;;;;;;;4877325;29;20542;-68
2022/07/17 07:24:10;;;;;;;7.50;2.78;;;;;;;;;;4879930;29;20104;-70
2022/07/17 07:26:35;;;;;;;8.30;2.53;;;;;;;;;;4869159;29;20120;-69
2022/07/17 07:29:01;;;;;;;7.25;3.25;;;;;;;;;;4873490;29;20064;-69
2022/07/17 07:31:26;;;;;;;7.57;3.03;;;;;;;;;;4870850;29;20470;-67
2022/07/17 07:33:52;;;;;;;10.07;3.03;;;;;;;;;;4889134;29;20033;-68
2022/07/17 07:36:17;;;;;;;11.65;3.00;;;;;;;;;;4882216;29;20035;-67
2022/07/17 07:38:44;;;;;;;8.70;2.60;;;;;;;;;;4889732;29;20103;-66
2022/07/17 07:41:10;;;;;;;6.43;2.80;;;;;;;;;;4877286;29;20073;-68
2022/07/17 07:43:35;;;;;;;8.98;3.00;;;;;;;;;;4881322;29;20085;-61
2022/07/17 07:46:02;;;;;;;7.95;3.00;;;;;;;;;;4878014;29;20471;-63
2022/07/17 07:48:28;;;;;;;6.75;2.80;;;;;;;;;;4877104;29;20097;-64
2022/07/17 07:50:53;;;;;;;12.32;2.80;;;;;;;;;;4878030;29;20036;-64
2022/07/17 07:53:19;;;;;;;6.75;2.78;;;;;;;;;;4861418;29;20053;-63
2022/07/17 07:55:44;;;;;;;8.65;2.70;;;;;;;;;;4878521;29;20367;-63
2022/07/17 07:58:12;;;;;;;5.70;2.65;;;;;;;;;;4875458;29;20032;-64
2022/07/17 08:00:40;;;;;;;6.47;2.72;;;;;;;;;;4877802;29;20044;-63
2022/07/17 08:03:06;;;;;;;8.02;2.88;;;;;;;;;;4877873;29;20033;-62
2022/07/17 08:05:32;;;;;;;9.57;3.00;;;;;;;;;;4878607;29;20041;-62
2022/07/17 08:07:58;;;;;;;8.30;2.85;;;;;;;;;;4877504;29;20028;-63
2022/07/17 08:10:23;;;;;;;6.10;2.75;;;;;;;;;;4877193;29;20049;-62
2022/07/17 08:12:49;;;;;;;8.32;2.90;;;;;;;;;;4877685;29;20044;-62
2022/07/17 08:15:17;;;;;;;8.73;2.65;;;;;;;;;;4877919;29;20618;-62
2022/07/17 08:17:43;;;;;;;8.77;2.90;;;;;;;;;;4878481;29;20065;-62
2022/07/17 08:20:09;;;;;;;8.00;2.50;;;;;;;;;;4877420;29;20117;-64
2022/07/17 08:22:34;;;;;;;7.97;2.47;;;;;;;;;;4876862;29;20124;-64
2022/07/17 08:25:00;;;;;;;10.20;2.63;;;;;;;;;;4877280;29;20136;-61
2022/07/17 08:27:25;;;;;;;7.70;2.35;;;;;;;;;;4878329;29;20489;-62
2022/07/17 08:29:50;;;;;;;5.03;2.40;;;;;;;;;;4878346;29;20033;-62
2022/07/17 08:32:16;;;;;;;9.15;2.70;;;;;;;;;;4876490;29;20048;-62
2022/07/17 08:34:41;;;;;;;6.95;2.40;;;;;;;;;;4878250;29;20423;-62
2022/07/17 08:37:07;;;;;;;8.10;2.10;;;;;;;;;;4877159;29;20025;-63
2022/07/17 08:39:32;;;;;;;4.93;1.67;;;;;;;;;;4878282;29;20033;-62
2022/07/17 08:41:57;;;;;;;5.25;1.92;;;;;;;;;;4876859;29;20490;-63
2022/07/17 08:44:23;;;;;;;8.70;2.10;;;;;;;;;;4877815;29;20044;-62
2022/07/17 08:46:49;;;;;;;7.28;2.10;;;;;;;;;;4877886;29;20066;-62
2022/07/17 08:49:20;;;;;;;5.53;1.63;;;;;;;;;;4877112;29;20097;-61
2022/07/17 08:51:47;;;;;;;6.80;1.85;;;;;;;;;;4877977;29;20059;-62
2022/07/17 08:54:12;;;;;;;7.10;2.10;;;;;;;;;;4877746;29;20052;-62
2022/07/17 08:56:38;;;;;;;6.13;1.77;;;;;;;;;;4877095;29;20033;-62
2022/07/17 08:59:03;;;;;;;5.05;1.88;;;;;;;;;;4876019;29;20116;-62
2022/07/17 09:01:29;;;;;;;8.35;2.08;;;;;;;;;;4877833;29;20716;-63
2022/07/17 09:04:05;;;;;;;5.72;1.70;;;;;;;;;;4877788;29;20041;-63
2022/07/17 09:06:30;;;;;;;5.82;1.55;;;;;;;;;;4875365;29;20113;-62
2022/07/17 09:09:07;;;;;;;5.57;1.83;;;;;;;;;;4877891;29;20123;-63
2022/07/17 09:11:43;;;;;;;4.15;1.55;;;;;;;;;;4877890;29;20037;-61
2022/07/17 09:14:09;;;;;;;5.05;1.75;;;;;;;;;;4875627;29;20043;-63
2022/07/17 09:16:36;;;;;;;4.72;1.88;;;;;;;;;;4876957;29;20104;-63
2022/07/17 09:19:01;;;;;;;5.22;1.50;;;;;;;;;;4874773;29;20041;-64
2022/07/17 09:21:28;;;;;;;5.88;1.83;;;;;;;;;;4881350;29;20062;-62
2022/07/17 09:24:07;;;;;;;3.90;1.90;;;;;;;;;;4881941;29;20060;-63
2022/07/17 09:26:34;;;;;;;5.93;1.70;;;;;;;;;;4881336;29;20486;-63
2022/07/17 09:29:03;;;;;;;5.10;1.70;;;;;;;;;;4881027;29;20489;-64
2022/07/17 09:31:31;;;;;;;8.25;1.92;;;;;;;;;;4881117;29;20033;-62
2022/07/17 09:33:57;;;;;;;3.90;1.73;;;;;;;;;;4880491;29;20041;-62
2022/07/17 09:36:23;;;;;;;4.32;1.50;;;;;;;;;;4880720;29;20063;-62
2022/07/17 09:38:53;;;;;;;6.82;1.70;;;;;;;;;;4881327;29;20037;-62
2022/07/17 09:41:20;;;;;;;6.70;1.52;;;;;;;;;;4880089;29;20088;-62
2022/07/17 09:43:47;;;;;;;9.13;3.05;;;;;;;;;;4880889;29;20469;-63
2022/07/17 09:46:16;;;;;;;6.93;1.55;;;;;;;;;;4879900;29;20080;-62
2022/07/17 09:48:47;;;;;;;5.70;2.03;;;;;;;;;;4857497;29;20029;-63
2022/07/17 09:51:18;;;;;;;6.07;1.88;;;;;;;;;;4861293;29;20070;-62
2022/07/17 09:53:49;;;;;;;4.95;1.63;;;;;;;;;;4861708;29;20061;-61
2022/07/17 09:56:17;;;;;;;4.32;1.55;;;;;;;;;;4844706;29;20041;-64
2022/07/17 09:58:49;;;;;;;4.55;1.55;;;;;;;;;;4861890;29;20033;-63
2022/07/17 10:01:16;;;;;;;4.60;1.90;;;;;;;;;;4861176;29;20052;-62
2022/07/17 10:03:43;;;;;;;5.82;1.48;;;;;;;;;;4879933;29;20526;-62
2022/07/17 10:06:10;;;;;;;5.80;1.50;;;;;;;;;;4866804;29;20059;-63
2022/07/17 10:08:37;;;;;;;4.53;1.70;;;;;;;;;;4861682;29;20034;-62
2022/07/17 10:11:05;;;;;;;5.30;1.40;;;;;;;;;;4861159;29;20040;-64
2022/07/17 10:13:31;;;;;;;4.60;1.70;;;;;;;;;;4861559;29;20064;-62
2022/07/17 10:15:57;;;;;;;6.50;1.60;;;;;;;;;;4862024;29;20043;-63
2022/07/17 10:18:39;;;;;;;7.32;2.13;;;;;;;;;;4876910;29;20271;-62
2022/07/17 10:21:14;;;;;;;3.58;1.70;;;;;;;;;;4861128;29;20073;-64
2022/07/17 10:23:42;;;;;;;3.45;1.40;;;;;;;;;;4861959;29;20040;-62
2022/07/17 10:26:07;;;;;;;4.38;1.52;;;;;;;;;;4861021;29;20166;-63
2022/07/17 10:28:40;;;;;;;5.57;1.40;;;;;;;;;;4861841;29;20112;-62
2022/07/17 10:31:05;;;;;;;4.55;1.48;;;;;;;;;;4860761;29;20034;-63
2022/07/17 10:33:31;;;;;;;3.08;1.30;;;;;;;;;;4875786;29;20406;-62
2022/07/17 10:35:59;;;;;;;4.00;1.50;;;;;;;;;;4880462;29;20458;-62
2022/07/17 10:38:26;;;;;;;4.78;1.30;;;;;;;;;;4879279;29;20068;-64
2022/07/17 10:41:02;;;;;;;4.22;1.30;;;;;;;;;;4880047;29;20090;-63
2022/07/17 10:43:39;;;;;;;5.57;1.50;;;;;;;;;;4879289;29;20128;-62
2022/07/17 10:46:04;;;;;;;4.65;1.33;;;;;;;;;;4878347;29;20041;-66
2022/07/17 10:48:29;;;;;;;5.55;1.48;;;;;;;;;;4879677;29;20543;-62
2022/07/17 10:50:56;;;;;;;2.72;1.20;;;;;;;;;;4879694;29;20145;-62
2022/07/17 10:53:26;;;;;;;3.83;1.45;;;;;;;;;;4878548;29;20056;-63
2022/07/17 10:55:56;;;;;;;;;;;;;;;;;;4880224;29;20033;-62
2022/07/17 10:58:28;;;;;;;3.00;1.45;;;;;;;;;;4879283;29;19915;-62
2022/07/17 11:00:59;;;;;;;5.93;1.63;;;;;;;;;;4878949;29;20022;-62
2022/07/17 11:03:25;;;;;;;3.28;1.40;;;;;;;;;;4870120;29;20037;-62
2022/07/17 11:05:50;;;;;;;5.05;1.75;;;;;;;;;;4862908;29;20034;-62
2022/07/17 11:08:16;;;;;;;5.25;1.60;;;;;;;;;;4877824;29;20033;-62
2022/07/17 11:10:41;;;;;;;3.80;1.77;;;;;;;;;;4878576;29;20112;-63
2022/07/17 11:13:15;;;;;;;6.50;1.50;;;;;;;;;;4878572;29;20029;-65
2022/07/17 11:15:48;;;;;;;3.50;1.30;;;;;;;;;;4878703;29;20037;-63
2022/07/17 11:18:16;;;;;;;2.15;1.27;;;;;;;;;;4878691;29;20486;-64
2022/07/17 11:20:59;;;;;;;5.45;1.50;;;;;;;;;;4879285;29;20055;-62
2022/07/17 11:23:26;;;;;;;4.05;1.58;;;;;;;;;;4878359;29;20045;-62
2022/07/17 11:26:03;;;;;;;4.18;1.35;;;;;;;;;;4879406;29;20115;-61
2022/07/17 11:28:37;;;;;;;5.65;1.50;;;;;;;;;;4878946;29;20045;-63
2022/07/17 11:31:24;;;;;;;4.35;1.40;;;;;;;;;;4878444;29;20037;-63
2022/07/17 11:33:53;;;;;;;3.92;1.40;;;;;;;;;;4878942;29;20109;-62
2022/07/17 11:36:27;;;;;;;2.97;1.38;;;;;;;;;;4878351;29;20045;-63
2022/07/17 11:38:54;;;;;;;6.15;1.50;;;;;;;;;;4879182;29;20037;-63
2022/07/17 11:41:20;;;;;;;3.10;1.42;;;;;;;;;;4877926;29;20382;-63
2022/07/17 11:43:47;;;;;;;8.25;1.50;;;;;;;;;;4878351;29;20044;-63
2022/07/17 11:46:14;;;;;;;2.33;1.40;;;;;;;;;;4877213;29;20037;-63
2022/07/17 11:48:42;;;;;;;4.55;1.30;;;;;;;;;;4878840;29;20043;-64
2022/07/17 11:51:07;;;;;;;6.65;1.65;;;;;;;;;;4878569;29;20124;-65
2022/07/17 11:53:38;;;;;;;4.55;1.42;;;;;;;;;;4878089;29;20128;-64
2022/07/17 11:56:05;;;;;;;2.50;1.27;;;;;;;;;;4879014;29;20081;-64
2022/07/17 11:58:42;;;;;;;4.30;1.40;;;;;;;;;;4877718;29;20081;-63
2022/07/17 12:01:08;;;;;;;3.17;1.33;;;;;;;;;;4877227;29;20493;-66
2022/07/17 12:03:33;;;;;;;6.90;1.60;;;;;;;;;;4878043;29;20033;-63
2022/07/17 12:05:59;;;;;;;3.50;1.52;;;;;;;;;;4878085;29;20065;-63
2022/07/17 12:08:24;;;;;;;5.47;1.50;;;;;;;;;;4877682;29;20051;-63
2022/07/17 12:11:03;;;;;;;5.50;1.30;;;;;;;;;;4878518;29;20032;-62
2022/07/17 12:13:46;;;;;;;3.90;1.40;;;;;;;;;;4877552;29;20044;-63
2022/07/17 12:16:24;;;;;;;4.75;1.30;;;;;;;;;;4876542;29;20040;-65
2022/07/17 12:18:57;;;;;;;3.67;1.50;;;;;;;;;;4872794;29;20037;-64
2022/07/17 12:21:22;;;;;;;5.05;1.60;;;;;;;;;;4875251;29;20129;-64
2022/07/17 12:24:01;;;;;;;4.13;1.50;;;;;;;;;;4861233;29;20586;-63
2022/07/17 12:26:26;;;;;;;4.07;1.52;;;;;;;;;;4877618;29;20041;-64
2022/07/17 12:28:52;;;;;;;3.67;1.70;;;;;;;;;;4877136;29;20064;-64
2022/07/17 12:31:20;;;;;;;6.80;1.50;;;;;;;;;;4875112;29;20045;-64
2022/07/17 12:33:45;;;;;;;3.25;1.42;;;;;;;;;;4877276;29;20080;-65
2022/07/17 12:36:12;;;;;;;4.28;1.50;;;;;;;;;;4877013;29;20032;-66
2022/07/17 12:38:37;;;;;;;3.10;1.40;;;;;;;;;;4877388;29;20037;-64
2022/07/17 12:41:04;;;;;;;3.50;1.50;;;;;;;;;;4878239;29;20029;-65
2022/07/17 12:43:30;;;;;;;3.92;1.70;;;;;;;;;;4876951;29;20230;-65
2022/07/17 12:45:55;;;;;;;3.08;1.40;;;;;;;;;;4877688;29;20419;-63
2022/07/17 12:48:20;;;;;;;5.68;1.42;;;;;;;;;;4876368;29;20036;-64
2022/07/17 12:50:46;;;;;;;4.45;1.67;;;;;;;;;;4877868;29;20200;-63
2022/07/17 12:53:11;;;;;;;9.05;1.70;;;;;;;;;;4876770;29;20144;-66
2022/07/17 12:55:37;;;;;;;3.85;1.50;;;;;;;;;;4878910;29;20029;-65
2022/07/17 12:58:03;;;;;;;3.53;1.40;;;;;;;;;;4881634;29;20378;-64
2022/07/17 13:00:29;;;;;;;3.25;1.40;;;;;;;;;;4878046;29;20479;-64
2022/07/17 13:02:55;;;;;;;4.40;1.67;;;;;;;;;;4881426;29;20040;-65
2022/07/17 13:05:20;;;;;;;4.70;1.40;;;;;;;;;;4880126;29;20417;-66
2022/07/17 13:07:45;;;;;;;2.35;1.30;;;;;;;;;;4881364;29;20035;-65
2022/07/17 13:10:11;;;;;;;3.03;1.30;;;;;;;;;;4881231;29;20036;-65
2022/07/17 13:12:51;;;;;;;5.53;1.60;;;;;;;;;;4880367;29;20056;-64
2022/07/17 13:15:17;;;;;;;6.15;1.42;;;;;;;;;;4879588;29;20036;-65
2022/07/17 13:17:42;;;;;;;5.72;1.70;;;;;;;;;;4881370;29;20029;-64
2022/07/17 13:20:09;;;;;;;4.18;1.48;;;;;;;;;;4880494;29;20446;-64
2022/07/17 13:22:34;;;;;;;3.00;1.52;;;;;;;;;;4879608;29;20112;-63
2022/07/17 13:24:59;;;;;;;3.20;1.50;;;;;;;;;;4892677;29;20119;-63
2022/07/17 13:27:25;;;;;;;3.60;1.40;;;;;;;;;;4879578;29;20428;-64
2022/07/17 13:29:50;;;;;;;4.88;1.40;;;;;;;;;;4876982;29;20040;-65
2022/07/17 13:32:16;;;;;;;4.28;1.50;;;;;;;;;;4879634;29;20059;-65
2022/07/17 13:34:41;;;;;;;4.68;1.40;;;;;;;;;;4877750;29;20482;-64
2022/07/17 13:37:08;;;;;;;3.22;1.30;;;;;;;;;;4880910;29;20390;-64
2022/07/17 13:39:34;;;;;;;3.88;1.45;;;;;;;;;;4880351;29;20227;-65
2022/07/17 13:41:59;;;;;;;3.53;1.30;;;;;;;;;;4892853;29;20124;-64
2022/07/17 13:44:25;;;;;;;5.82;1.55;;;;;;;;;;4871410;29;20359;-65
2022/07/17 13:46:50;;;;;;;4.05;1.58;;;;;;;;;;4881976;29;20036;-64
2022/07/17 13:49:15;;;;;;;3.85;1.40;;;;;;;;;;4898663;29;20032;-65
2022/07/17 13:51:41;;;;;;;2.22;1.42;;;;;;;;;;4896279;29;20047;-64
2022/07/17 13:54:06;;;;;;;2.90;1.40;;;;;;;;;;4898586;29;20391;-63
2022/07/17 13:56:33;;;;;;;4.55;1.50;;;;;;;;;;4879278;29;20140;-64
2022/07/17 13:58:59;;;;;;;5.40;1.30;;;;;;;;;;4880643;29;20052;-64
2022/07/17 14:01:24;;;;;;;2.97;1.30;;;;;;;;;;4880807;29;20491;-64
2022/07/17 14:03:50;;;;;;;4.05;1.55;;;;;;;;;;4880304;29;20029;-64
2022/07/17 14:06:16;;;;;;;3.78;1.30;;;;;;;;;;4875739;29;20045;-65
2022/07/17 14:08:41;;;;;;;3.28;1.30;;;;;;;;;;4899005;29;20028;-64
2022/07/17 14:11:06;;;;;;;3.55;1.40;;;;;;;;;;4888280;29;20040;-63
2022/07/17 14:13:32;;;;;;;2.25;1.20;;;;;;;;;;4879584;29;20060;-63
2022/07/17 14:15:57;;;;;;;1.25;1.13;;;;;;;;;;4883608;29;20458;-64
2022/07/17 14:18:23;;;;;;;3.35;1.30;;;;;;;;;;4878661;29;20025;-66
2022/07/17 14:20:48;;;;;;;3.08;1.20;;;;;;;;;;4880522;29;20116;-64
2022/07/17 14:23:17;;;;;;;1.90;1.10;;;;;;;;;;4892098;29;20039;-64
2022/07/17 14:25:43;;;;;;;3.75;1.50;;;;;;;;;;4886496;29;20052;-63
2022/07/17 14:28:08;;;;;;;3.92;1.50;;;;;;;;;;4880030;29;20458;-64
2022/07/17 14:30:35;;;;;;;3.15;1.30;;;;;;;;;;4886466;29;20103;-64
2022/07/17 14:33:00;;;;;;;3.65;1.50;;;;;;;;;;4884775;29;20056;-65
2022/07/17 14:35:26;;;;;;;3.95;1.20;;;;;;;;;;4878388;29;20045;-65
2022/07/17 14:37:51;;;;;;;3.40;1.40;;;;;;;;;;4880049;29;20142;-64
2022/07/17 14:40:17;;;;;;;4.20;1.30;;;;;;;;;;4877398;29;20032;-65